<?xml version="1.0" encoding="UTF-8" standalone="no" ?>
<gpx xmlns="http://www.topografix.com/GPX/1/1" xmlns:xsi="http://www.w3.org/2001/XMLSchema-instance" xsi:schemaLocation="http://www.topografix.com/GPX/1/1 http://www.topografix.com/GPX/1/1/gpx.xsd" version="1.1" creator="VisuGPX - https://www.visugpx.com">
  <metadata>
    <name>Grand8_StPaul-Banne</name>
    <desc><![CDATA[Tracé forestier, très pentu par secteurs (montée + descente). 
Passages de plusieurs gués, possiblement mouillants... PAS de chaussures basses !
En début de rando, on découvre quelques-uns des beaux lavoirs de St-Paul.]]></desc>
  </metadata>
  <wpt lat="44.33814" lon="4.1521">
    <ele>255</ele>
    <name><![CDATA[Point de passage 1]]></name>
    <type><![CDATA[GENERIC]]></type>
  </wpt>
  <wpt lat="44.33718" lon="4.15183">
    <ele>255</ele>
    <name><![CDATA[Point de passage 2]]></name>
    <type><![CDATA[GENERIC]]></type>
  </wpt>
  <trk>
    <name><![CDATA[Grand8_StPaul-Banne]]></name>
    <trkseg>
      <trkpt lat="44.33814" lon="4.1521">
        <ele>255</ele>
        <time>2025-04-25T10:33:21.000Z</time>
      </trkpt>
      <trkpt lat="44.33741" lon="4.15185">
        <ele>252</ele>
        <time>2025-04-25T10:34:48.000Z</time>
      </trkpt>
      <trkpt lat="44.33762" lon="4.15145">
        <ele>254</ele>
        <time>2025-04-25T10:35:50.000Z</time>
      </trkpt>
      <trkpt lat="44.33773" lon="4.1508">
        <ele>255</ele>
        <time>2025-04-25T10:36:55.000Z</time>
      </trkpt>
      <trkpt lat="44.33792" lon="4.1504">
        <ele>254</ele>
        <time>2025-04-25T10:37:34.000Z</time>
      </trkpt>
      <trkpt lat="44.33828" lon="4.15011">
        <ele>256</ele>
        <time>2025-04-25T10:38:42.000Z</time>
      </trkpt>
      <trkpt lat="44.33837" lon="4.14984">
        <ele>255</ele>
        <time>2025-04-25T10:39:07.000Z</time>
      </trkpt>
      <trkpt lat="44.33835" lon="4.14972">
        <ele>256</ele>
        <time>2025-04-25T10:39:27.000Z</time>
      </trkpt>
      <trkpt lat="44.33863" lon="4.14864">
        <ele>257</ele>
        <time>2025-04-25T10:41:11.000Z</time>
      </trkpt>
      <trkpt lat="44.33869" lon="4.14811">
        <ele>262</ele>
        <time>2025-04-25T10:42:47.000Z</time>
      </trkpt>
      <trkpt lat="44.33884" lon="4.14787">
        <ele>261</ele>
        <time>2025-04-25T10:43:13.000Z</time>
      </trkpt>
      <trkpt lat="44.3391" lon="4.14794">
        <ele>276</ele>
        <time>2025-04-25T10:46:17.000Z</time>
      </trkpt>
      <trkpt lat="44.33923" lon="4.14774">
        <ele>279</ele>
        <time>2025-04-25T10:47:09.000Z</time>
      </trkpt>
      <trkpt lat="44.3393" lon="4.14751">
        <ele>280</ele>
        <time>2025-04-25T10:47:41.000Z</time>
      </trkpt>
      <trkpt lat="44.33939" lon="4.14693">
        <ele>276</ele>
        <time>2025-04-25T10:48:29.000Z</time>
      </trkpt>
      <trkpt lat="44.33942" lon="4.14628">
        <ele>271</ele>
        <time>2025-04-25T10:49:23.000Z</time>
      </trkpt>
      <trkpt lat="44.33984" lon="4.14558">
        <ele>270</ele>
        <time>2025-04-25T10:50:38.000Z</time>
      </trkpt>
      <trkpt lat="44.34028" lon="4.14495">
        <ele>276</ele>
        <time>2025-04-25T10:52:52.000Z</time>
      </trkpt>
      <trkpt lat="44.34098" lon="4.14415">
        <ele>275</ele>
        <time>2025-04-25T10:54:35.000Z</time>
      </trkpt>
      <trkpt lat="44.34149" lon="4.14272">
        <ele>301</ele>
        <time>2025-04-25T11:01:13.000Z</time>
      </trkpt>
      <trkpt lat="44.34186" lon="4.14249">
        <ele>311</ele>
        <time>2025-04-25T11:03:43.000Z</time>
      </trkpt>
      <trkpt lat="44.34263" lon="4.14214">
        <ele>322</ele>
        <time>2025-04-25T11:07:08.000Z</time>
      </trkpt>
      <trkpt lat="44.34318" lon="4.14115">
        <ele>334</ele>
        <time>2025-04-25T11:10:54.000Z</time>
      </trkpt>
      <trkpt lat="44.34328" lon="4.14023">
        <ele>346</ele>
        <time>2025-04-25T11:14:13.000Z</time>
      </trkpt>
      <trkpt lat="44.34343" lon="4.13905">
        <ele>351</ele>
        <time>2025-04-25T11:16:43.000Z</time>
      </trkpt>
      <trkpt lat="44.34391" lon="4.13762">
        <ele>351</ele>
        <time>2025-04-25T11:18:53.000Z</time>
      </trkpt>
      <trkpt lat="44.34528" lon="4.13678">
        <ele>374</ele>
        <time>2025-04-25T11:25:41.000Z</time>
      </trkpt>
      <trkpt lat="44.34589" lon="4.13641">
        <ele>379</ele>
        <time>2025-04-25T11:27:49.000Z</time>
      </trkpt>
      <trkpt lat="44.34704" lon="4.13589">
        <ele>400</ele>
        <time>2025-04-25T11:33:43.000Z</time>
      </trkpt>
      <trkpt lat="44.34764" lon="4.1347">
        <ele>415</ele>
        <time>2025-04-25T11:38:16.000Z</time>
      </trkpt>
      <trkpt lat="44.34827" lon="4.13543">
        <ele>423</ele>
        <time>2025-04-25T11:41:12.000Z</time>
      </trkpt>
      <trkpt lat="44.34866" lon="4.13541">
        <ele>412</ele>
        <time>2025-04-25T11:41:57.000Z</time>
      </trkpt>
      <trkpt lat="44.34905" lon="4.1354">
        <ele>402</ele>
        <time>2025-04-25T11:42:42.000Z</time>
      </trkpt>
      <trkpt lat="44.34929" lon="4.13512">
        <ele>388</ele>
        <time>2025-04-25T11:43:18.000Z</time>
      </trkpt>
      <trkpt lat="44.34953" lon="4.13477">
        <ele>379</ele>
        <time>2025-04-25T11:43:58.000Z</time>
      </trkpt>
      <trkpt lat="44.34906" lon="4.1342">
        <ele>377</ele>
        <time>2025-04-25T11:45:09.000Z</time>
      </trkpt>
      <trkpt lat="44.34861" lon="4.13313">
        <ele>382</ele>
        <time>2025-04-25T11:47:42.000Z</time>
      </trkpt>
      <trkpt lat="44.34781" lon="4.13258">
        <ele>379</ele>
        <time>2025-04-25T11:49:25.000Z</time>
      </trkpt>
      <trkpt lat="44.34767" lon="4.13222">
        <ele>375</ele>
        <time>2025-04-25T11:49:58.000Z</time>
      </trkpt>
      <trkpt lat="44.34855" lon="4.13207">
        <ele>361</ele>
        <time>2025-04-25T11:51:40.000Z</time>
      </trkpt>
      <trkpt lat="44.34928" lon="4.13226">
        <ele>355</ele>
        <time>2025-04-25T11:53:05.000Z</time>
      </trkpt>
      <trkpt lat="44.34968" lon="4.13294">
        <ele>350</ele>
        <time>2025-04-25T11:54:17.000Z</time>
      </trkpt>
      <trkpt lat="44.34967" lon="4.13188">
        <ele>333</ele>
        <time>2025-04-25T11:55:43.000Z</time>
      </trkpt>
      <trkpt lat="44.35009" lon="4.13336">
        <ele>339</ele>
        <time>2025-04-25T11:58:55.000Z</time>
      </trkpt>
      <trkpt lat="44.35061" lon="4.13376">
        <ele>340</ele>
        <time>2025-04-25T12:00:13.000Z</time>
      </trkpt>
      <trkpt lat="44.3511" lon="4.1333">
        <ele>337</ele>
        <time>2025-04-25T12:01:20.000Z</time>
      </trkpt>
      <trkpt lat="44.35209" lon="4.13311">
        <ele>328</ele>
        <time>2025-04-25T12:03:14.000Z</time>
      </trkpt>
      <trkpt lat="44.35264" lon="4.13263">
        <ele>327</ele>
        <time>2025-04-25T12:04:28.000Z</time>
      </trkpt>
      <trkpt lat="44.35305" lon="4.13305">
        <ele>328</ele>
        <time>2025-04-25T12:05:36.000Z</time>
      </trkpt>
      <trkpt lat="44.35495" lon="4.13266">
        <ele>329</ele>
        <time>2025-04-25T12:09:27.000Z</time>
      </trkpt>
      <trkpt lat="44.3551" lon="4.13128">
        <ele>314</ele>
        <time>2025-04-25T12:11:20.000Z</time>
      </trkpt>
      <trkpt lat="44.35503" lon="4.12896">
        <ele>299</ele>
        <time>2025-04-25T12:14:30.000Z</time>
      </trkpt>
      <trkpt lat="44.35489" lon="4.12831">
        <ele>293</ele>
        <time>2025-04-25T12:15:26.000Z</time>
      </trkpt>
      <trkpt lat="44.35557" lon="4.12756">
        <ele>268</ele>
        <time>2025-04-25T12:17:05.000Z</time>
      </trkpt>
      <trkpt lat="44.3565" lon="4.12735">
        <ele>261</ele>
        <time>2025-04-25T12:18:53.000Z</time>
      </trkpt>
      <trkpt lat="44.35801" lon="4.13025">
        <ele>272</ele>
        <time>2025-04-25T12:25:40.000Z</time>
      </trkpt>
      <trkpt lat="44.35891" lon="4.13073">
        <ele>277</ele>
        <time>2025-04-25T12:28:22.000Z</time>
      </trkpt>
      <trkpt lat="44.36026" lon="4.13056">
        <ele>295</ele>
        <time>2025-04-25T12:34:01.000Z</time>
      </trkpt>
      <trkpt lat="44.3619" lon="4.13004">
        <ele>336</ele>
        <time>2025-04-25T12:44:16.000Z</time>
      </trkpt>
      <trkpt lat="44.36237" lon="4.12982">
        <ele>341</ele>
        <time>2025-04-25T12:46:05.000Z</time>
      </trkpt>
      <trkpt lat="44.36226" lon="4.1308">
        <ele>357</ele>
        <time>2025-04-25T12:50:11.000Z</time>
      </trkpt>
      <trkpt lat="44.36215" lon="4.13324">
        <ele>383</ele>
        <time>2025-04-25T12:57:59.000Z</time>
      </trkpt>
      <trkpt lat="44.36096" lon="4.13444">
        <ele>397</ele>
        <time>2025-04-25T13:03:10.000Z</time>
      </trkpt>
      <trkpt lat="44.36029" lon="4.13541">
        <ele>407</ele>
        <time>2025-04-25T13:06:44.000Z</time>
      </trkpt>
      <trkpt lat="44.35976" lon="4.13771">
        <ele>402</ele>
        <time>2025-04-25T13:10:02.000Z</time>
      </trkpt>
      <trkpt lat="44.35994" lon="4.13901">
        <ele>402</ele>
        <time>2025-04-25T13:11:51.000Z</time>
      </trkpt>
      <trkpt lat="44.35928" lon="4.14051">
        <ele>398</ele>
        <time>2025-04-25T13:14:15.000Z</time>
      </trkpt>
      <trkpt lat="44.35906" lon="4.1415">
        <ele>398</ele>
        <time>2025-04-25T13:15:40.000Z</time>
      </trkpt>
      <trkpt lat="44.35905" lon="4.14069">
        <ele>391</ele>
        <time>2025-04-25T13:16:46.000Z</time>
      </trkpt>
      <trkpt lat="44.35889" lon="4.14049">
        <ele>385</ele>
        <time>2025-04-25T13:17:10.000Z</time>
      </trkpt>
      <trkpt lat="44.3584" lon="4.14066">
        <ele>372</ele>
        <time>2025-04-25T13:18:09.000Z</time>
      </trkpt>
      <trkpt lat="44.35821" lon="4.14164">
        <ele>368</ele>
        <time>2025-04-25T13:19:32.000Z</time>
      </trkpt>
      <trkpt lat="44.35797" lon="4.1421">
        <ele>364</ele>
        <time>2025-04-25T13:20:18.000Z</time>
      </trkpt>
      <trkpt lat="44.35782" lon="4.14245">
        <ele>361</ele>
        <time>2025-04-25T13:20:51.000Z</time>
      </trkpt>
      <trkpt lat="44.3576" lon="4.14298">
        <ele>357</ele>
        <time>2025-04-25T13:21:41.000Z</time>
      </trkpt>
      <trkpt lat="44.35733" lon="4.14341">
        <ele>347</ele>
        <time>2025-04-25T13:22:28.000Z</time>
      </trkpt>
      <trkpt lat="44.35734" lon="4.14381">
        <ele>345</ele>
        <time>2025-04-25T13:23:01.000Z</time>
      </trkpt>
      <trkpt lat="44.35736" lon="4.14415">
        <ele>340</ele>
        <time>2025-04-25T13:23:28.000Z</time>
      </trkpt>
      <trkpt lat="44.35724" lon="4.14433">
        <ele>332</ele>
        <time>2025-04-25T13:23:48.000Z</time>
      </trkpt>
      <trkpt lat="44.35712" lon="4.14458">
        <ele>325</ele>
        <time>2025-04-25T13:24:13.000Z</time>
      </trkpt>
      <trkpt lat="44.35719" lon="4.14486">
        <ele>323</ele>
        <time>2025-04-25T13:24:37.000Z</time>
      </trkpt>
      <trkpt lat="44.35711" lon="4.14504">
        <ele>317</ele>
        <time>2025-04-25T13:24:54.000Z</time>
      </trkpt>
      <trkpt lat="44.35699" lon="4.1447">
        <ele>321</ele>
        <time>2025-04-25T13:26:06.000Z</time>
      </trkpt>
      <trkpt lat="44.35667" lon="4.14467">
        <ele>322</ele>
        <time>2025-04-25T13:26:53.000Z</time>
      </trkpt>
      <trkpt lat="44.3564" lon="4.14473">
        <ele>328</ele>
        <time>2025-04-25T13:28:26.000Z</time>
      </trkpt>
      <trkpt lat="44.35623" lon="4.14459">
        <ele>331</ele>
        <time>2025-04-25T13:29:20.000Z</time>
      </trkpt>
      <trkpt lat="44.35587" lon="4.14463">
        <ele>342</ele>
        <time>2025-04-25T13:31:55.000Z</time>
      </trkpt>
      <trkpt lat="44.35574" lon="4.14452">
        <ele>344</ele>
        <time>2025-04-25T13:32:33.000Z</time>
      </trkpt>
      <trkpt lat="44.35562" lon="4.14446">
        <ele>348</ele>
        <time>2025-04-25T13:33:29.000Z</time>
      </trkpt>
      <trkpt lat="44.35548" lon="4.14433">
        <ele>349</ele>
        <time>2025-04-25T13:33:58.000Z</time>
      </trkpt>
      <trkpt lat="44.35528" lon="4.14409">
        <ele>355</ele>
        <time>2025-04-25T13:35:30.000Z</time>
      </trkpt>
      <trkpt lat="44.35506" lon="4.14384">
        <ele>363</ele>
        <time>2025-04-25T13:37:24.000Z</time>
      </trkpt>
      <trkpt lat="44.35486" lon="4.14438">
        <ele>361</ele>
        <time>2025-04-25T13:38:14.000Z</time>
      </trkpt>
      <trkpt lat="44.35451" lon="4.14486">
        <ele>360</ele>
        <time>2025-04-25T13:39:09.000Z</time>
      </trkpt>
      <trkpt lat="44.35407" lon="4.14515">
        <ele>358</ele>
        <time>2025-04-25T13:40:05.000Z</time>
      </trkpt>
      <trkpt lat="44.35397" lon="4.14602">
        <ele>347</ele>
        <time>2025-04-25T13:41:17.000Z</time>
      </trkpt>
      <trkpt lat="44.35362" lon="4.14664">
        <ele>344</ele>
        <time>2025-04-25T13:42:21.000Z</time>
      </trkpt>
      <trkpt lat="44.35308" lon="4.14733">
        <ele>337</ele>
        <time>2025-04-25T13:43:45.000Z</time>
      </trkpt>
      <trkpt lat="44.35306" lon="4.14864">
        <ele>330</ele>
        <time>2025-04-25T13:45:33.000Z</time>
      </trkpt>
      <trkpt lat="44.35302" lon="4.14935">
        <ele>321</ele>
        <time>2025-04-25T13:46:32.000Z</time>
      </trkpt>
      <trkpt lat="44.35266" lon="4.14963">
        <ele>306</ele>
        <time>2025-04-25T13:47:19.000Z</time>
      </trkpt>
      <trkpt lat="44.35246" lon="4.15029">
        <ele>308</ele>
        <time>2025-04-25T13:48:38.000Z</time>
      </trkpt>
      <trkpt lat="44.35174" lon="4.15079">
        <ele>324</ele>
        <time>2025-04-25T13:52:55.000Z</time>
      </trkpt>
      <trkpt lat="44.35107" lon="4.15066">
        <ele>327</ele>
        <time>2025-04-25T13:54:43.000Z</time>
      </trkpt>
      <trkpt lat="44.35104" lon="4.15106">
        <ele>335</ele>
        <time>2025-04-25T13:56:39.000Z</time>
      </trkpt>
      <trkpt lat="44.35063" lon="4.15101">
        <ele>338</ele>
        <time>2025-04-25T13:57:56.000Z</time>
      </trkpt>
      <trkpt lat="44.35066" lon="4.15167">
        <ele>348</ele>
        <time>2025-04-25T14:00:33.000Z</time>
      </trkpt>
      <trkpt lat="44.35015" lon="4.15096">
        <ele>356</ele>
        <time>2025-04-25T14:03:17.000Z</time>
      </trkpt>
      <trkpt lat="44.3496" lon="4.14978">
        <ele>373</ele>
        <time>2025-04-25T14:08:07.000Z</time>
      </trkpt>
      <trkpt lat="44.34923" lon="4.14868">
        <ele>393</ele>
        <time>2025-04-25T14:13:12.000Z</time>
      </trkpt>
      <trkpt lat="44.34921" lon="4.14741">
        <ele>393</ele>
        <time>2025-04-25T14:14:56.000Z</time>
      </trkpt>
      <trkpt lat="44.34942" lon="4.14644">
        <ele>396</ele>
        <time>2025-04-25T14:16:50.000Z</time>
      </trkpt>
      <trkpt lat="44.35029" lon="4.14495">
        <ele>407</ele>
        <time>2025-04-25T14:21:21.000Z</time>
      </trkpt>
      <trkpt lat="44.35072" lon="4.14384">
        <ele>419</ele>
        <time>2025-04-25T14:25:08.000Z</time>
      </trkpt>
      <trkpt lat="44.35113" lon="4.14262">
        <ele>419</ele>
        <time>2025-04-25T14:26:58.000Z</time>
      </trkpt>
      <trkpt lat="44.35093" lon="4.14132">
        <ele>422</ele>
        <time>2025-04-25T14:29:18.000Z</time>
      </trkpt>
      <trkpt lat="44.35022" lon="4.14119">
        <ele>419</ele>
        <time>2025-04-25T14:30:40.000Z</time>
      </trkpt>
      <trkpt lat="44.34932" lon="4.14042">
        <ele>420</ele>
        <time>2025-04-25T14:32:51.000Z</time>
      </trkpt>
      <trkpt lat="44.34928" lon="4.13968">
        <ele>418</ele>
        <time>2025-04-25T14:33:52.000Z</time>
      </trkpt>
      <trkpt lat="44.34874" lon="4.13934">
        <ele>418</ele>
        <time>2025-04-25T14:34:59.000Z</time>
      </trkpt>
      <trkpt lat="44.34838" lon="4.13814">
        <ele>423</ele>
        <time>2025-04-25T14:37:37.000Z</time>
      </trkpt>
      <trkpt lat="44.34788" lon="4.13716">
        <ele>428</ele>
        <time>2025-04-25T14:40:07.000Z</time>
      </trkpt>
      <trkpt lat="44.3478" lon="4.13672">
        <ele>428</ele>
        <time>2025-04-25T14:40:44.000Z</time>
      </trkpt>
      <trkpt lat="44.34788" lon="4.13628">
        <ele>428</ele>
        <time>2025-04-25T14:41:21.000Z</time>
      </trkpt>
      <trkpt lat="44.34828" lon="4.13556">
        <ele>425</ele>
        <time>2025-04-25T14:42:35.000Z</time>
      </trkpt>
      <trkpt lat="44.34805" lon="4.13487">
        <ele>418</ele>
        <time>2025-04-25T14:43:37.000Z</time>
      </trkpt>
      <trkpt lat="44.34771" lon="4.13455">
        <ele>416</ele>
        <time>2025-04-25T14:44:25.000Z</time>
      </trkpt>
      <trkpt lat="44.34752" lon="4.13392">
        <ele>416</ele>
        <time>2025-04-25T14:45:20.000Z</time>
      </trkpt>
      <trkpt lat="44.34714" lon="4.13361">
        <ele>418</ele>
        <time>2025-04-25T14:46:31.000Z</time>
      </trkpt>
      <trkpt lat="44.34618" lon="4.13363">
        <ele>425</ele>
        <time>2025-04-25T14:49:33.000Z</time>
      </trkpt>
      <trkpt lat="44.3455" lon="4.13346">
        <ele>432</ele>
        <time>2025-04-25T14:52:04.000Z</time>
      </trkpt>
      <trkpt lat="44.3445" lon="4.13392">
        <ele>424</ele>
        <time>2025-04-25T14:54:04.000Z</time>
      </trkpt>
      <trkpt lat="44.34337" lon="4.13384">
        <ele>422</ele>
        <time>2025-04-25T14:56:14.000Z</time>
      </trkpt>
      <trkpt lat="44.34158" lon="4.13514">
        <ele>400</ele>
        <time>2025-04-25T15:00:05.000Z</time>
      </trkpt>
      <trkpt lat="44.34075" lon="4.13657">
        <ele>399</ele>
        <time>2025-04-25T15:02:36.000Z</time>
      </trkpt>
      <trkpt lat="44.34025" lon="4.13762">
        <ele>404</ele>
        <time>2025-04-25T15:05:11.000Z</time>
      </trkpt>
      <trkpt lat="44.33937" lon="4.13869">
        <ele>403</ele>
        <time>2025-04-25T15:07:24.000Z</time>
      </trkpt>
      <trkpt lat="44.33796" lon="4.13974">
        <ele>398</ele>
        <time>2025-04-25T15:10:28.000Z</time>
      </trkpt>
      <trkpt lat="44.3368" lon="4.13966">
        <ele>390</ele>
        <time>2025-04-25T15:12:41.000Z</time>
      </trkpt>
      <trkpt lat="44.33532" lon="4.14014">
        <ele>357</ele>
        <time>2025-04-25T15:15:34.000Z</time>
      </trkpt>
      <trkpt lat="44.33624" lon="4.13827">
        <ele>342</ele>
        <time>2025-04-25T15:18:39.000Z</time>
      </trkpt>
      <trkpt lat="44.33536" lon="4.13813">
        <ele>328</ele>
        <time>2025-04-25T15:20:20.000Z</time>
      </trkpt>
      <trkpt lat="44.33485" lon="4.1377">
        <ele>327</ele>
        <time>2025-04-25T15:21:29.000Z</time>
      </trkpt>
      <trkpt lat="44.33374" lon="4.13846">
        <ele>327</ele>
        <time>2025-04-25T15:23:50.000Z</time>
      </trkpt>
      <trkpt lat="44.33335" lon="4.13907">
        <ele>320</ele>
        <time>2025-04-25T15:24:57.000Z</time>
      </trkpt>
      <trkpt lat="44.33269" lon="4.13976">
        <ele>304</ele>
        <time>2025-04-25T15:26:31.000Z</time>
      </trkpt>
      <trkpt lat="44.33092" lon="4.14039">
        <ele>313</ele>
        <time>2025-04-25T15:31:33.000Z</time>
      </trkpt>
      <trkpt lat="44.33026" lon="4.14122">
        <ele>310</ele>
        <time>2025-04-25T15:33:15.000Z</time>
      </trkpt>
      <trkpt lat="44.33019" lon="4.14185">
        <ele>322</ele>
        <time>2025-04-25T15:36:11.000Z</time>
      </trkpt>
      <trkpt lat="44.32884" lon="4.14233">
        <ele>330</ele>
        <time>2025-04-25T15:40:13.000Z</time>
      </trkpt>
      <trkpt lat="44.32764" lon="4.14292">
        <ele>342</ele>
        <time>2025-04-25T15:44:42.000Z</time>
      </trkpt>
      <trkpt lat="44.32667" lon="4.14315">
        <ele>335</ele>
        <time>2025-04-25T15:46:35.000Z</time>
      </trkpt>
      <trkpt lat="44.32651" lon="4.14353">
        <ele>331</ele>
        <time>2025-04-25T15:47:11.000Z</time>
      </trkpt>
      <trkpt lat="44.32723" lon="4.14361">
        <ele>329</ele>
        <time>2025-04-25T15:48:33.000Z</time>
      </trkpt>
      <trkpt lat="44.32775" lon="4.14401">
        <ele>333</ele>
        <time>2025-04-25T15:50:23.000Z</time>
      </trkpt>
      <trkpt lat="44.32871" lon="4.14492">
        <ele>332</ele>
        <time>2025-04-25T15:52:36.000Z</time>
      </trkpt>
      <trkpt lat="44.33021" lon="4.14496">
        <ele>311</ele>
        <time>2025-04-25T15:55:28.000Z</time>
      </trkpt>
      <trkpt lat="44.33234" lon="4.14574">
        <ele>295</ele>
        <time>2025-04-25T15:59:40.000Z</time>
      </trkpt>
      <trkpt lat="44.33285" lon="4.14658">
        <ele>297</ele>
        <time>2025-04-25T16:01:31.000Z</time>
      </trkpt>
      <trkpt lat="44.33384" lon="4.14588">
        <ele>287</ele>
        <time>2025-04-25T16:03:38.000Z</time>
      </trkpt>
      <trkpt lat="44.33393" lon="4.14698">
        <ele>281</ele>
        <time>2025-04-25T16:05:09.000Z</time>
      </trkpt>
      <trkpt lat="44.335" lon="4.14798">
        <ele>274</ele>
        <time>2025-04-25T16:07:35.000Z</time>
      </trkpt>
      <trkpt lat="44.33576" lon="4.14788">
        <ele>267</ele>
        <time>2025-04-25T16:09:03.000Z</time>
      </trkpt>
      <trkpt lat="44.33622" lon="4.1486">
        <ele>265</ele>
        <time>2025-04-25T16:10:23.000Z</time>
      </trkpt>
      <trkpt lat="44.33714" lon="4.14899">
        <ele>263</ele>
        <time>2025-04-25T16:12:12.000Z</time>
      </trkpt>
      <trkpt lat="44.3377" lon="4.15021">
        <ele>258</ele>
        <time>2025-04-25T16:14:11.000Z</time>
      </trkpt>
      <trkpt lat="44.33626" lon="4.15137">
        <ele>256</ele>
        <time>2025-04-25T16:17:21.000Z</time>
      </trkpt>
      <trkpt lat="44.33718" lon="4.15183">
        <ele>255</ele>
        <time>2025-04-25T16:19:12.000Z</time>
      </trkpt>
    </trkseg>
  </trk>
</gpx>